createdAt,value
2018-07-27T00:01:22.023Z,98869.81
2018-07-27T00:03:56.438Z,98871.69
2018-07-27T00:06:30.843Z,98871.84
2018-07-27T00:09:08.480Z,98867.16
2018-07-27T00:11:43.639Z,98869.44
2018-07-27T00:14:18.080Z,98861.91
2018-07-27T00:16:52.567Z,98867.72
2018-07-27T00:19:27.215Z,98868.10
2018-07-27T00:22:01.704Z,98863.96
2018-07-27T00:24:36.107Z,98857.47
2018-07-27T00:27:10.483Z,98864.04
2018-07-27T00:29:45.231Z,98856.08
2018-07-27T00:32:19.502Z,98855.52
2018-07-27T00:34:53.908Z,98856.30
2018-07-27T00:37:28.340Z,98854.58
2018-07-27T00:40:02.737Z,98856.33
2018-07-27T00:42:37.200Z,98857.55
2018-07-27T00:45:11.651Z,98854.45
2018-07-27T00:47:46.056Z,98851.80
2018-07-27T00:50:20.350Z,98851.39
2018-07-27T00:52:55.809Z,98847.31
2018-07-27T00:55:33.215Z,98850.50
2018-07-27T00:58:07.616Z,98851.70
2018-07-27T01:00:41.907Z,98848.89
2018-07-27T01:03:16.272Z,98849.65
2018-07-27T01:05:50.899Z,98850.03
2018-07-27T01:08:25.352Z,98843.71
2018-07-27T01:10:59.788Z,98835.62
2018-07-27T01:13:34.352Z,98844.47
2018-07-27T01:16:08.999Z,98842.45
2018-07-27T01:18:43.544Z,98833.77
2018-07-27T01:21:17.900Z,98835.62
2018-07-27T01:23:52.164Z,98833.28
2018-07-27T01:26:26.539Z,98835.86
2018-07-27T01:29:00.977Z,98840.44
2018-07-27T01:31:35.736Z,98834.31
2018-07-27T01:34:10.286Z,98840.27
2018-07-27T01:36:44.652Z,98835.67
2018-07-27T01:39:19.090Z,98832.12
2018-07-27T01:41:53.592Z,98832.92
2018-07-27T01:44:32.736Z,98831.17
2018-07-27T01:47:19.055Z,98821.66
2018-07-27T01:49:56.876Z,98821.69
2018-07-27T01:52:31.281Z,98825.04
2018-07-27T01:55:05.923Z,98822.91
2018-07-27T01:57:40.465Z,98824.08
2018-07-27T02:00:14.898Z,98823.84
2018-07-27T02:02:49.171Z,98824.67
2018-07-27T02:05:23.539Z,98818.19
2018-07-27T02:07:57.752Z,98823.61
2018-07-27T02:10:31.963Z,98823.22
2018-07-27T02:13:06.225Z,98817.27
2018-07-27T02:15:40.567Z,98822.44
2018-07-27T02:18:15.012Z,98820.70
2018-07-27T02:23:48.434Z,98816.83
2018-07-27T02:26:22.667Z,98820.00
2018-07-27T02:28:56.877Z,98810.69
2018-07-27T02:31:31.236Z,98811.16
2018-07-27T02:34:05.670Z,98809.15
2018-07-27T02:36:39.964Z,98805.80
2018-07-27T02:39:14.403Z,98809.19
2018-07-27T02:41:48.788Z,98802.66
2018-07-27T02:44:23.168Z,98799.52
2018-07-27T02:46:57.473Z,98804.48
2018-07-27T02:49:31.879Z,98805.41
2018-07-27T02:52:06.220Z,98804.22
2018-07-27T02:54:40.593Z,98806.45
2018-07-27T02:57:15.043Z,98801.09
2018-07-27T02:59:49.689Z,98801.09
2018-07-27T03:02:23.887Z,98800.86
2018-07-27T03:04:58.187Z,98804.05
2018-07-27T03:07:32.634Z,98801.06
2018-07-27T03:10:07.308Z,98800.47
2018-07-27T03:12:41.617Z,98802.05
2018-07-27T03:15:16.011Z,98792.35
2018-07-27T03:17:50.340Z,98800.66
2018-07-27T03:20:24.664Z,98800.66
2018-07-27T03:22:59.123Z,98802.64
2018-07-27T03:25:33.483Z,98802.25
2018-07-27T03:28:07.763Z,98797.89
2018-07-27T03:30:42.129Z,98794.35
2018-07-27T03:33:16.330Z,98795.94
2018-07-27T03:35:50.700Z,98796.53
2018-07-27T03:38:25.111Z,98791.39
2018-07-27T03:40:59.423Z,98793.95
2018-07-27T03:43:33.794Z,98787.42
2018-07-27T03:46:08.291Z,98793.54
2018-07-27T03:48:42.776Z,98794.13
2018-07-27T03:51:17.121Z,98791.16
2018-07-27T03:53:51.391Z,98791.56
2018-07-27T03:56:25.827Z,98782.86
2018-07-27T03:59:00.266Z,98781.87
2018-07-27T04:01:34.670Z,98790.77
2018-07-27T04:04:09.070Z,98787.60
2018-07-27T04:06:43.504Z,98789.02
2018-07-27T04:09:17.919Z,98791.78
2018-07-27T04:11:52.246Z,98788.02
2018-07-27T04:14:26.608Z,98792.17
2018-07-27T04:17:00.893Z,98789.80
2018-07-27T04:19:35.327Z,98789.00
2018-07-27T04:22:09.723Z,98799.87
2018-07-27T04:24:44.082Z,98804.22
2018-07-27T04:27:18.458Z,98803.25
2018-07-27T04:29:52.828Z,98805.82
2018-07-27T04:32:27.079Z,98806.83
2018-07-27T04:35:01.515Z,98802.30
2018-07-27T04:37:35.792Z,98806.05
2018-07-27T04:40:10.324Z,98812.19
2018-07-27T04:42:44.760Z,98809.61
2018-07-27T04:45:19.260Z,98804.07
2018-07-27T04:47:53.817Z,98813.77
2018-07-27T04:50:28.563Z,98810.22
2018-07-27T04:53:03.096Z,98806.64
2018-07-27T04:55:37.564Z,98801.63
2018-07-27T04:58:11.908Z,98808.17
2018-07-27T05:00:47.353Z,98812.53
2018-07-27T05:03:22.017Z,98812.14
2018-07-27T05:05:56.701Z,98809.30
2018-07-27T05:08:31.300Z,98813.08
2018-07-27T05:11:06.497Z,98809.48
2018-07-27T05:13:40.751Z,98812.41
2018-07-27T05:16:15.245Z,98812.37
2018-07-27T05:18:49.702Z,98810.38
2018-07-27T05:21:24.594Z,98805.80
2018-07-27T05:24:12.636Z,98810.49
2018-07-27T05:26:47.132Z,98811.25
2018-07-27T05:29:21.546Z,98811.58
2018-07-27T05:31:56.688Z,98813.11
2018-07-27T05:34:31.840Z,98810.50
2018-07-27T05:37:06.996Z,98808.29
2018-07-27T05:39:41.756Z,98805.86
2018-07-27T05:42:16.361Z,98805.17
2018-07-27T05:44:51.015Z,98809.75
2018-07-27T05:47:25.632Z,98812.81
2018-07-27T05:50:01.133Z,98814.03
2018-07-27T05:52:35.643Z,98813.95
2018-07-27T05:55:10.235Z,98810.07
2018-07-27T05:57:44.813Z,98804.39
2018-07-27T06:00:19.290Z,98808.09
2018-07-27T06:02:53.963Z,98807.92
2018-07-27T06:05:28.454Z,98803.58
2018-07-27T06:08:03.133Z,98808.45
2018-07-27T06:10:37.636Z,98808.67
2018-07-27T06:13:12.235Z,98802.88
2018-07-27T06:15:46.897Z,98808.50
2018-07-27T06:18:21.425Z,98808.18
2018-07-27T06:20:56.063Z,98811.23
2018-07-27T06:23:30.491Z,98801.05
2018-07-27T06:26:05.025Z,98809.63
2018-07-27T06:28:39.473Z,98805.23
2018-07-27T06:31:14.065Z,98800.89
2018-07-27T06:33:48.521Z,98800.52
2018-07-27T06:36:23.046Z,98800.94
2018-07-27T06:38:57.501Z,98795.77
2018-07-27T06:41:32.032Z,98799.16
2018-07-27T06:44:06.489Z,98799.91
2018-07-27T06:46:40.892Z,98806.70
2018-07-27T06:49:15.320Z,98808.75
2018-07-27T06:51:49.719Z,98805.47
2018-07-27T06:54:30.387Z,98800.19
2018-07-27T06:57:04.928Z,98801.12
2018-07-27T06:59:39.272Z,98804.64
2018-07-27T07:02:13.820Z,98806.59
2018-07-27T07:04:51.205Z,98814.27
2018-07-27T07:07:25.780Z,98803.55
2018-07-27T07:10:00.266Z,98803.27
2018-07-27T07:12:35.088Z,98805.81
2018-07-27T07:15:10.568Z,98807.88
2018-07-27T07:17:45.021Z,98804.06
2018-07-27T07:20:19.574Z,98804.53
2018-07-27T07:22:54.032Z,98797.42
2018-07-27T07:25:28.489Z,98798.39
2018-07-27T07:28:02.816Z,98798.05
2018-07-27T07:30:37.678Z,98798.48
2018-07-27T07:33:12.445Z,98807.73
2018-07-27T07:35:46.776Z,98802.52
2018-07-27T07:38:21.452Z,98801.13
2018-07-27T07:40:55.966Z,98787.47
2018-07-27T07:43:30.425Z,98790.64
2018-07-27T07:46:04.912Z,98786.33
2018-07-27T07:48:39.703Z,98796.08
2018-07-27T07:51:14.480Z,98798.27
2018-07-27T07:53:49.037Z,98794.87
2018-07-27T07:56:23.600Z,98788.53
2018-07-27T07:58:58.010Z,98789.03
2018-07-27T08:01:32.929Z,98785.45
2018-07-27T08:04:07.436Z,98789.00
2018-07-27T08:06:41.823Z,98779.38
2018-07-27T08:09:16.341Z,98776.39
2018-07-27T08:11:50.716Z,98769.27
2018-07-27T08:14:25.070Z,98775.25
2018-07-27T08:16:59.725Z,98765.25
2018-07-27T08:19:34.103Z,98776.14
2018-07-27T08:22:08.516Z,98775.66
2018-07-27T08:24:43.244Z,98775.52
2018-07-27T08:27:17.761Z,98765.49
2018-07-27T08:29:52.257Z,98768.30
2018-07-27T08:32:26.727Z,98761.31
2018-07-27T08:35:01.043Z,98770.20
2018-07-27T08:37:35.467Z,98764.73
2018-07-27T08:40:09.868Z,98761.19
2018-07-27T08:42:44.390Z,98760.42
2018-07-27T08:45:18.765Z,98750.77
2018-07-27T08:47:53.196Z,98755.43
2018-07-27T08:50:27.924Z,98755.98
2018-07-27T08:53:02.492Z,98757.47
2018-07-27T08:56:01.945Z,98744.27
2018-07-27T08:58:59.825Z,98749.26
2018-07-27T09:01:34.401Z,98747.53
2018-07-27T09:04:33.554Z,98742.74
2018-07-27T09:07:08.104Z,98735.47
2018-07-27T09:09:42.540Z,98742.42
2018-07-27T09:12:17.105Z,98740.41
2018-07-27T09:14:51.817Z,98731.00
2018-07-27T09:17:26.311Z,98729.11
2018-07-27T09:20:00.552Z,98730.88
2018-07-27T09:22:37.255Z,98733.54
2018-07-27T09:25:18.672Z,98733.25
2018-07-27T09:27:54.135Z,98737.05
2018-07-27T09:30:40.752Z,98728.57
2018-07-27T09:33:16.312Z,98724.81
2018-07-27T09:35:58.757Z,98722.89
2018-07-27T09:38:33.461Z,98715.53
2018-07-27T09:41:07.885Z,98716.62
2018-07-27T09:43:42.224Z,98719.08
2018-07-27T09:46:16.651Z,98717.02
2018-07-27T09:48:52.005Z,98716.50
2018-07-27T09:51:33.991Z,98714.61
2018-07-27T09:54:09.452Z,98718.00
2018-07-27T09:56:44.007Z,98718.48
2018-07-27T09:59:18.486Z,98714.73
2018-07-27T10:01:52.985Z,98712.52
2018-07-27T10:04:27.548Z,98714.20
2018-07-27T10:07:02.074Z,98706.31
2018-07-27T10:09:36.514Z,98706.42
2018-07-27T10:12:11.067Z,98703.17
2018-07-27T10:14:45.571Z,98699.42
2018-07-27T10:17:19.888Z,98692.55
2018-07-27T10:19:54.354Z,98700.84
2018-07-27T10:22:28.980Z,98702.34
2018-07-27T10:25:03.489Z,98689.69
2018-07-27T10:27:37.972Z,98691.69
2018-07-27T10:30:12.372Z,98690.92
2018-07-27T10:32:47.108Z,98686.48
2018-07-27T10:35:21.924Z,98688.59
2018-07-27T10:37:56.365Z,98685.28
2018-07-27T10:40:30.836Z,98678.27
2018-07-27T10:43:05.372Z,98676.45
2018-07-27T10:45:39.889Z,98679.52
2018-07-27T10:48:14.286Z,98684.22
2018-07-27T10:50:48.824Z,98676.63
2018-07-27T10:53:40.395Z,98673.84
2018-07-27T10:56:14.796Z,98661.06
2018-07-27T10:58:49.412Z,98663.16
2018-07-27T11:01:24.101Z,98649.13
2018-07-27T11:03:58.748Z,98650.89
2018-07-27T11:06:33.941Z,98651.58
2018-07-27T11:09:10.073Z,98652.28
2018-07-27T11:11:44.420Z,98645.61
2018-07-27T11:14:35.569Z,98641.04
2018-07-27T11:17:10.129Z,98649.42
2018-07-27T11:19:44.608Z,98653.19
2018-07-27T11:22:19.204Z,98640.47
2018-07-27T11:24:53.620Z,98638.12
2018-07-27T11:27:28.320Z,98640.52
2018-07-27T11:30:02.915Z,98635.84
2018-07-27T11:32:37.310Z,98633.83
2018-07-27T11:35:11.977Z,98631.53
2018-07-27T11:37:46.443Z,98629.69
2018-07-27T11:40:20.752Z,98621.35
2018-07-27T11:42:54.988Z,98616.74
2018-07-27T11:45:29.387Z,98604.44
2018-07-27T11:48:04.442Z,98608.48
2018-07-27T11:50:38.712Z,98609.00
2018-07-27T11:53:13.115Z,98601.86
2018-07-27T11:55:47.508Z,98604.75
2018-07-27T11:58:21.819Z,98592.94
2018-07-27T12:00:56.106Z,98587.72
2018-07-27T12:03:30.369Z,98589.22
2018-07-27T12:06:04.843Z,98584.97
2018-07-27T12:08:39.416Z,98584.91
2018-07-27T12:11:28.508Z,98579.06
2018-07-27T12:14:03.096Z,98582.30
2018-07-27T12:16:37.416Z,98576.35
2018-07-27T12:19:11.795Z,98572.97
2018-07-27T12:21:46.302Z,98568.89
2018-07-27T12:27:27.274Z,98563.80
2018-07-27T12:30:01.536Z,98560.25
2018-07-27T12:32:36.292Z,98554.89
2018-07-27T12:35:10.932Z,98553.08
2018-07-27T12:37:45.311Z,98550.42
2018-07-27T12:40:19.691Z,98547.13
2018-07-27T12:42:54.001Z,98553.75
2018-07-27T12:45:28.427Z,98548.34
2018-07-27T12:48:02.831Z,98545.84
2018-07-27T12:50:37.099Z,98545.16
2018-07-27T12:53:11.499Z,98532.28
2018-07-27T12:55:45.722Z,98542.61
2018-07-27T12:58:20.100Z,98532.22
2018-07-27T13:00:54.336Z,98531.08
2018-07-27T13:03:28.723Z,98528.41
2018-07-27T13:06:03.081Z,98532.02
2018-07-27T13:08:37.426Z,98528.27
2018-07-27T13:11:11.675Z,98528.02
2018-07-27T13:13:45.924Z,98520.91
2018-07-27T13:16:20.291Z,98511.55
2018-07-27T13:18:55.065Z,98501.63
2018-07-27T13:21:29.340Z,98504.00
2018-07-27T13:24:04.041Z,98506.60
2018-07-27T13:26:38.441Z,98510.87
2018-07-27T13:29:13.004Z,98500.55
2018-07-27T13:31:55.383Z,98494.94
2018-07-27T13:34:32.376Z,98486.59
2018-07-27T13:37:06.684Z,98490.20
2018-07-27T13:39:41.704Z,98484.55
2018-07-27T13:42:17.356Z,98477.21
2018-07-27T13:44:51.723Z,98476.73
2018-07-27T13:47:26.148Z,98475.42
2018-07-27T13:50:00.520Z,98463.41
2018-07-27T13:52:34.876Z,98462.81
2018-07-27T13:55:09.295Z,98464.30
2018-07-27T13:57:43.908Z,98459.09
2018-07-27T14:00:18.379Z,98466.52
2018-07-27T14:02:52.728Z,98459.71
2018-07-27T14:05:26.991Z,98458.13
2018-07-27T14:08:01.404Z,98446.77
2018-07-27T14:10:35.801Z,98441.38
2018-07-27T14:13:10.128Z,98429.50
2018-07-27T14:15:44.486Z,98425.77
2018-07-27T14:18:18.882Z,98430.53
2018-07-27T14:20:53.215Z,98428.86
2018-07-27T14:23:27.563Z,98428.31
2018-07-27T14:26:01.928Z,98426.70
2018-07-27T14:28:36.351Z,98425.03
2018-07-27T14:31:11.050Z,98413.48
2018-07-27T14:33:45.593Z,98423.06
2018-07-27T14:36:20.003Z,98414.27
2018-07-27T14:38:54.380Z,98411.36
2018-07-27T14:41:28.780Z,98402.88
2018-07-27T14:44:03.428Z,98407.80
2018-07-27T14:46:38.259Z,98406.29
2018-07-27T14:49:15.157Z,98409.48
2018-07-27T14:51:49.783Z,98412.59
2018-07-27T14:54:24.337Z,98405.79
2018-07-27T14:56:58.910Z,98404.48
2018-07-27T14:59:33.236Z,98395.38
2018-07-27T15:02:07.768Z,98398.38
2018-07-27T15:04:42.354Z,98387.42
2018-07-27T15:07:16.653Z,98398.64
2018-07-27T15:09:51.188Z,98389.23
2018-07-27T15:12:25.765Z,98401.10
2018-07-27T15:15:00.285Z,98394.10
2018-07-27T15:17:34.891Z,98388.53
2018-07-27T15:20:09.401Z,98385.79
2018-07-27T15:22:43.769Z,98385.55
2018-07-27T15:25:18.188Z,98381.44
2018-07-27T15:27:52.615Z,98383.33
2018-07-27T15:30:27.377Z,98377.28
2018-07-27T15:33:01.837Z,98376.23
2018-07-27T15:35:36.228Z,98368.72
2018-07-27T15:38:10.618Z,98363.25
2018-07-27T15:40:45.058Z,98372.23
2018-07-27T15:43:19.762Z,98364.44
2018-07-27T15:45:55.168Z,98358.97
2018-07-27T15:48:29.875Z,98355.48
2018-07-27T15:51:04.344Z,98349.13
2018-07-27T15:53:38.708Z,98342.50
2018-07-27T15:56:13.293Z,98347.37
2018-07-27T16:02:10.788Z,98341.88
2018-07-27T16:04:45.353Z,98340.72
2018-07-27T16:07:19.876Z,98334.84
2018-07-27T16:09:54.736Z,98337.49
2018-07-27T16:12:29.630Z,98335.75
2018-07-27T16:18:07.133Z,98331.59
2018-07-27T16:23:40.904Z,98320.31
2018-07-27T16:26:15.500Z,98318.61
2018-07-27T16:28:50.330Z,98317.66
2018-07-27T16:31:25.154Z,98314.31
2018-07-27T16:34:00.417Z,98311.42
2018-07-27T16:36:35.191Z,98308.97
2018-07-27T16:39:13.077Z,98305.11
2018-07-27T16:41:47.712Z,98315.20
2018-07-27T16:44:22.649Z,98311.91
2018-07-27T16:46:57.164Z,98311.67
2018-07-27T16:49:31.629Z,98312.78
2018-07-27T16:52:06.148Z,98314.42
2018-07-27T16:54:40.486Z,98308.80
2018-07-27T16:57:14.939Z,98310.07
2018-07-27T16:59:49.410Z,98309.30
2018-07-27T17:02:23.908Z,98303.39
2018-07-27T17:04:58.395Z,98307.44
2018-07-27T17:07:32.984Z,98306.11
2018-07-27T17:10:07.405Z,98307.98
2018-07-27T17:12:41.872Z,98304.22
2018-07-27T17:15:16.435Z,98306.73
2018-07-27T17:18:03.113Z,98303.98
2018-07-27T17:23:36.908Z,98299.13
2018-07-27T17:26:11.412Z,98293.05
2018-07-27T17:28:45.889Z,98293.98
2018-07-27T17:31:20.253Z,98296.34
2018-07-27T17:33:54.589Z,98293.19
2018-07-27T17:36:28.917Z,98298.81
2018-07-27T17:39:03.449Z,98294.91
2018-07-27T17:41:38.037Z,98285.22
2018-07-27T17:44:19.445Z,98291.34
2018-07-27T17:46:53.910Z,98288.06
2018-07-27T17:49:28.291Z,98280.42
2018-07-27T17:52:02.688Z,98279.99
2018-07-27T17:54:37.113Z,98280.45
2018-07-27T17:57:11.586Z,98279.37
2018-07-27T17:59:45.960Z,98278.92
2018-07-27T18:02:20.396Z,98277.80
2018-07-27T18:04:54.897Z,98270.01
2018-07-27T18:07:29.499Z,98270.48
2018-07-27T18:10:03.769Z,98270.02
2018-07-27T18:12:38.756Z,98269.52
2018-07-27T18:15:13.248Z,98271.70
2018-07-27T18:17:47.772Z,98261.89
2018-07-27T18:20:22.219Z,98269.85
2018-07-27T18:22:56.700Z,98269.52
2018-07-27T18:25:31.115Z,98268.87
2018-07-27T18:28:05.620Z,98268.82
2018-07-27T18:30:42.133Z,98266.80
2018-07-27T18:33:35.013Z,98265.74
2018-07-27T18:39:28.203Z,98264.38
2018-07-27T18:42:08.341Z,98272.72
2018-07-27T18:47:42.396Z,98257.06
2018-07-27T18:50:16.860Z,98261.52
2018-07-27T18:52:51.498Z,98258.41
2018-07-27T18:58:33.478Z,98266.17
2018-07-27T19:04:24.209Z,98269.09
2018-07-27T19:06:59.692Z,98270.76
2018-07-27T19:12:33.479Z,98265.63
2018-07-27T19:15:08.798Z,98261.92
2018-07-27T19:17:43.305Z,98260.70
2018-07-27T19:20:17.964Z,98262.87
2018-07-27T19:22:52.474Z,98265.50
2018-07-27T19:25:27.264Z,98269.09
2018-07-27T19:28:01.749Z,98272.31
2018-07-27T19:30:36.272Z,98264.28
2018-07-27T19:33:34.913Z,98261.60
2018-07-27T19:36:26.801Z,98265.59
2018-07-27T19:39:01.210Z,98269.42
2018-07-27T19:41:35.785Z,98270.75
2018-07-27T19:44:10.487Z,98265.96
2018-07-27T19:46:45.064Z,98268.92
2018-07-27T19:49:19.656Z,98270.63
2018-07-27T19:51:54.489Z,98273.01
2018-07-27T19:54:29.075Z,98271.78
2018-07-27T19:57:03.540Z,98273.69
2018-07-27T19:59:38.269Z,98272.67
2018-07-27T20:02:13.177Z,98274.92
2018-07-27T20:04:47.700Z,98277.73
2018-07-27T20:07:22.095Z,98280.70
2018-07-27T20:09:56.490Z,98284.75
2018-07-27T20:12:31.067Z,98285.14
2018-07-27T20:15:06.260Z,98280.88
2018-07-27T20:17:40.808Z,98279.33
2018-07-27T20:20:15.327Z,98284.13
2018-07-27T20:22:50.221Z,98280.56
2018-07-27T20:25:24.898Z,98277.33
2018-07-27T20:27:59.468Z,98283.17
2018-07-27T20:30:34.319Z,98284.55
2018-07-27T20:33:08.730Z,98289.16
2018-07-27T20:35:43.461Z,98281.93
2018-07-27T20:38:18.077Z,98276.36
2018-07-27T20:40:52.764Z,98287.17
2018-07-27T20:43:27.264Z,98284.34
2018-07-27T20:46:01.646Z,98281.58
2018-07-27T20:48:36.201Z,98278.27
2018-07-27T20:51:10.685Z,98289.94
2018-07-27T20:53:45.077Z,98291.77
2018-07-27T20:56:19.644Z,98282.62
2018-07-27T20:58:54.142Z,98285.59
2018-07-27T21:01:28.624Z,98281.41
2018-07-27T21:04:03.253Z,98284.77
2018-07-27T21:06:37.768Z,98285.06
2018-07-27T21:09:12.864Z,98288.30
2018-07-27T21:11:47.222Z,98285.95
2018-07-27T21:14:21.502Z,98281.16
2018-07-27T21:16:55.908Z,98284.73
2018-07-27T21:19:30.405Z,98286.89
2018-07-27T21:22:05.118Z,98282.09
2018-07-27T21:24:39.589Z,98276.57
2018-07-27T21:27:14.160Z,98285.85
2018-07-27T21:29:48.698Z,98281.25
2018-07-27T21:32:23.152Z,98278.63
2018-07-27T21:34:57.605Z,98285.23
2018-07-27T21:37:32.021Z,98286.28
2018-07-27T21:40:06.917Z,98278.01
2018-07-27T21:42:41.430Z,98277.75
2018-07-27T21:45:15.952Z,98284.02
2018-07-27T21:47:50.513Z,98281.58
2018-07-27T21:50:24.964Z,98282.45
2018-07-27T21:52:59.392Z,98273.92
2018-07-27T21:55:33.780Z,98267.56
2018-07-27T21:58:08.151Z,98267.32
2018-07-27T22:00:42.580Z,98271.80
2018-07-27T22:03:16.986Z,98265.55
2018-07-27T22:05:51.432Z,98262.94
2018-07-27T22:08:26.115Z,98253.53
2018-07-27T22:11:00.603Z,98260.67
2018-07-27T22:13:34.944Z,98252.48
2018-07-27T22:16:09.585Z,98255.27
2018-07-27T22:18:44.219Z,98251.17
2018-07-27T22:21:18.620Z,98254.58
2018-07-27T22:23:53.041Z,98246.54
2018-07-27T22:26:27.728Z,98239.92
2018-07-27T22:29:02.534Z,98232.43
2018-07-27T22:31:37.089Z,98240.53
2018-07-27T22:34:11.573Z,98238.96
2018-07-27T22:36:45.997Z,98237.34
2018-07-27T22:39:20.420Z,98242.01
2018-07-27T22:41:54.848Z,98244.33
2018-07-27T22:44:29.318Z,98239.19
2018-07-27T22:47:03.832Z,98233.53
2018-07-27T22:49:38.313Z,98234.75
2018-07-27T22:52:12.661Z,98237.18
2018-07-27T22:54:47.144Z,98236.92
2018-07-27T22:57:21.833Z,98244.14
2018-07-27T22:59:56.408Z,98239.14
2018-07-27T23:02:31.024Z,98232.00
2018-07-27T23:05:06.329Z,98234.08
2018-07-27T23:07:40.884Z,98226.39
2018-07-27T23:10:15.499Z,98225.18
2018-07-27T23:12:50.080Z,98226.57
2018-07-27T23:15:24.652Z,98224.31
2018-07-27T23:17:59.324Z,98227.02
2018-07-27T23:20:33.909Z,98224.55
2018-07-27T23:23:08.340Z,98219.49
2018-07-27T23:25:42.897Z,98216.78
2018-07-27T23:28:18.277Z,98217.06
2018-07-27T23:30:52.582Z,98224.27
2018-07-27T23:33:27.144Z,98219.39
2018-07-27T23:36:01.645Z,98209.92
2018-07-27T23:38:36.504Z,98211.59
2018-07-27T23:41:11.088Z,98213.30
2018-07-27T23:43:45.519Z,98213.95
2018-07-27T23:46:19.871Z,98208.38
2018-07-27T23:48:54.214Z,98206.03
2018-07-27T23:51:28.612Z,98209.05
2018-07-27T23:54:03.240Z,98200.52
2018-07-27T23:56:37.821Z,98197.08
2018-07-27T23:59:12.265Z,98200.23
